createdAt,value
2022-11-16T00:01:25.382Z,20.53
2022-11-16T00:04:27.246Z,20.61
2022-11-16T00:07:30.589Z,20.61
2022-11-16T00:10:32.760Z,20.53
2022-11-16T00:13:36.543Z,20.40
2022-11-16T00:16:39.335Z,20.22
2022-11-16T00:19:42.607Z,20.16
2022-11-16T00:22:45.124Z,20.09
2022-11-16T00:25:47.794Z,20.08
2022-11-16T00:28:51.565Z,20.02
2022-11-16T00:31:55.123Z,19.99
2022-11-16T00:34:57.624Z,19.92
2022-11-16T00:38:00.525Z,19.86
2022-11-16T00:41:02.517Z,19.86
2022-11-16T00:44:05.205Z,19.83
2022-11-16T00:47:07.355Z,19.79
2022-11-16T00:50:11.124Z,19.78
2022-11-16T00:53:15.486Z,19.76
2022-11-16T00:56:18.620Z,19.68
2022-11-16T00:59:21.349Z,19.68
2022-11-16T01:02:24.597Z,19.65
2022-11-16T01:05:26.785Z,19.66
2022-11-16T01:08:29.252Z,19.62
2022-11-16T01:11:50.092Z,19.59
2022-11-16T01:14:52.834Z,19.58
2022-11-16T01:17:56.345Z,19.54
2022-11-16T01:20:59.205Z,19.57
2022-11-16T01:24:01.673Z,19.54
2022-11-16T01:27:04.454Z,19.54
2022-11-16T01:30:12.767Z,19.47
2022-11-16T01:33:22.271Z,19.47
2022-11-16T01:36:25.230Z,19.42
2022-11-16T01:39:29.691Z,19.38
2022-11-16T01:42:36.404Z,19.39
2022-11-16T01:46:01.176Z,19.41
2022-11-16T01:49:11.426Z,19.32
2022-11-16T01:52:18.583Z,19.35
2022-11-16T01:55:22.977Z,19.32
2022-11-16T01:58:44.599Z,19.31
2022-11-16T02:01:52.546Z,19.31
2022-11-16T02:04:59.475Z,19.31
2022-11-16T02:08:47.523Z,19.28
2022-11-16T02:12:18.421Z,19.27
2022-11-16T02:15:35.223Z,19.24
2022-11-16T02:18:56.795Z,19.25
2022-11-16T02:22:26.473Z,19.24
2022-11-16T02:25:59.877Z,19.11
2022-11-16T02:29:20.304Z,19.07
2022-11-16T02:32:38.900Z,19.07
2022-11-16T02:35:47.776Z,19.04
2022-11-16T02:39:05.029Z,19.07
2022-11-16T02:42:15.975Z,19.07
2022-11-16T02:45:30.365Z,19.04
2022-11-16T02:48:43.962Z,19.06
2022-11-16T02:51:48.784Z,19.07
2022-11-16T02:54:50.921Z,19.07
2022-11-16T02:58:01.007Z,19.06
2022-11-16T03:01:15.259Z,19.06
2022-11-16T03:04:45.543Z,19.01
2022-11-16T03:08:14.344Z,19.03
2022-11-16T03:11:35.408Z,18.99
2022-11-16T03:14:43.242Z,19.00
2022-11-16T03:17:50.662Z,18.99
2022-11-16T03:21:01.885Z,19.01
2022-11-16T03:24:06.163Z,18.97
2022-11-16T03:27:14.298Z,18.96
2022-11-16T03:30:23.803Z,18.97
2022-11-16T03:33:44.427Z,18.96
2022-11-16T03:36:48.924Z,18.93
2022-11-16T03:39:54.762Z,18.94
2022-11-16T03:43:02.977Z,18.90
2022-11-16T03:46:06.456Z,18.89
2022-11-16T03:49:09.246Z,18.93
2022-11-16T03:52:16.102Z,18.87
2022-11-16T03:55:19.407Z,18.91
2022-11-16T03:58:22.166Z,18.86
2022-11-16T04:01:25.002Z,18.86
2022-11-16T04:04:47.466Z,18.87
2022-11-16T04:08:09.438Z,18.83
2022-11-16T04:11:32.992Z,18.83
2022-11-16T04:14:54.164Z,18.80
2022-11-16T04:18:16.966Z,18.81
2022-11-16T04:21:46.393Z,18.80
2022-11-16T04:24:53.089Z,18.80
2022-11-16T04:28:14.467Z,18.80
2022-11-16T04:31:40.227Z,18.79
2022-11-16T04:35:06.189Z,18.76
2022-11-16T04:38:08.372Z,18.76
2022-11-16T04:41:32.285Z,18.80
2022-11-16T04:44:55.172Z,18.80
2022-11-16T04:48:00.799Z,18.76
2022-11-16T04:51:06.733Z,18.77
2022-11-16T04:54:10.733Z,18.76
2022-11-16T04:57:13.875Z,18.77
2022-11-16T05:00:18.088Z,18.73
2022-11-16T05:03:20.209Z,18.73
2022-11-16T05:06:22.674Z,18.71
2022-11-16T05:09:25.095Z,18.71
2022-11-16T05:12:28.830Z,18.70
2022-11-16T05:15:35.300Z,18.69
2022-11-16T05:18:38.165Z,18.69
2022-11-16T05:21:40.827Z,18.69
2022-11-16T05:24:45.259Z,18.67
2022-11-16T05:27:47.394Z,18.70
2022-11-16T05:30:50.026Z,18.69
2022-11-16T05:33:57.870Z,18.70
2022-11-16T05:37:01.461Z,18.70
2022-11-16T05:40:06.218Z,18.69
2022-11-16T05:43:18.484Z,18.70
2022-11-16T05:46:35.500Z,18.70
2022-11-16T05:49:38.204Z,18.70
2022-11-16T05:52:40.614Z,18.69
2022-11-16T05:55:46.805Z,18.69
2022-11-16T05:58:50.230Z,18.69
2022-11-16T06:01:52.738Z,18.66
2022-11-16T06:04:54.812Z,18.66
2022-11-16T06:07:58.114Z,18.66
2022-11-16T06:11:05.176Z,18.67
2022-11-16T06:14:08.937Z,18.67
2022-11-16T06:17:15.154Z,18.64
2022-11-16T06:20:19.378Z,18.69
2022-11-16T06:23:22.532Z,18.66
2022-11-16T06:26:26.692Z,18.61
2022-11-16T06:29:28.811Z,18.63
2022-11-16T06:32:31.395Z,18.60
2022-11-16T06:35:33.638Z,18.61
2022-11-16T06:38:36.879Z,18.63
2022-11-16T06:41:41.587Z,18.57
2022-11-16T06:44:47.070Z,18.56
2022-11-16T06:47:53.387Z,18.55
2022-11-16T06:50:56.321Z,18.56
2022-11-16T06:53:58.487Z,18.59
2022-11-16T06:57:03.846Z,18.55
2022-11-16T07:00:08.037Z,18.56
2022-11-16T07:03:16.940Z,18.59
2022-11-16T07:06:21.314Z,18.56
2022-11-16T07:09:24.987Z,18.60
2022-11-16T07:12:27.696Z,18.57
2022-11-16T07:15:33.810Z,18.57
2022-11-16T07:18:39.750Z,18.56
2022-11-16T07:21:42.815Z,18.59
2022-11-16T07:24:50.195Z,18.57
2022-11-16T07:27:53.688Z,18.56
2022-11-16T07:31:05.727Z,18.56
2022-11-16T07:34:09.375Z,18.64
2022-11-16T07:37:37.775Z,18.61
2022-11-16T07:40:41.168Z,18.59
2022-11-16T07:43:47.236Z,18.64
2022-11-16T07:46:53.866Z,18.63
2022-11-16T07:49:56.071Z,18.53
2022-11-16T07:53:03.476Z,18.47
2022-11-16T07:56:06.876Z,18.50
2022-11-16T07:59:10.405Z,18.52
2022-11-16T08:02:16.905Z,18.61
2022-11-16T08:05:20.244Z,18.73
2022-11-16T08:08:24.988Z,18.79
2022-11-16T08:11:28.267Z,18.80
2022-11-16T08:14:31.126Z,18.87
2022-11-16T08:17:33.923Z,18.93
2022-11-16T08:20:38.005Z,19.07
2022-11-16T08:23:42.056Z,19.10
2022-11-16T08:26:44.563Z,19.10
2022-11-16T08:29:49.546Z,19.12
2022-11-16T08:32:51.866Z,19.25
2022-11-16T08:35:55.599Z,19.32
2022-11-16T08:38:58.159Z,19.41
2022-11-16T08:42:00.931Z,19.54
2022-11-16T08:45:03.240Z,19.58
2022-11-16T08:48:06.467Z,19.55
2022-11-16T08:51:19.182Z,19.57
2022-11-16T08:54:29.398Z,19.62
2022-11-16T08:57:32.098Z,19.62
2022-11-16T09:00:39.572Z,19.66
2022-11-16T09:03:42.375Z,19.72
2022-11-16T09:06:46.436Z,19.79
2022-11-16T09:09:48.552Z,19.83
2022-11-16T09:12:51.386Z,19.89
2022-11-16T09:15:58.112Z,19.93
2022-11-16T09:19:02.286Z,19.83
2022-11-16T09:22:04.584Z,19.78
2022-11-16T09:25:08.392Z,19.78
2022-11-16T09:28:11.742Z,19.76
2022-11-16T09:31:18.952Z,19.75
2022-11-16T09:34:25.714Z,19.66
2022-11-16T09:37:28.828Z,19.45
2022-11-16T09:40:41.026Z,19.36
2022-11-16T09:43:56.650Z,19.51
2022-11-16T09:47:00.680Z,19.58
2022-11-16T09:50:04.981Z,19.73
2022-11-16T09:53:15.234Z,19.72
2022-11-16T09:56:23.192Z,19.71
2022-11-16T09:59:30.279Z,19.89
2022-11-16T10:02:41.347Z,19.96
2022-11-16T10:06:05.953Z,20.03
2022-11-16T10:09:12.516Z,20.08
2022-11-16T10:12:34.888Z,20.10
2022-11-16T10:15:46.780Z,20.10
2022-11-16T10:19:10.098Z,20.09
2022-11-16T10:22:40.760Z,20.22
2022-11-16T10:25:45.539Z,20.25
2022-11-16T10:29:36.138Z,20.29
2022-11-16T10:33:06.710Z,20.22
2022-11-16T10:36:15.830Z,20.34
2022-11-16T10:39:20.987Z,20.41
2022-11-16T10:42:40.549Z,20.50
2022-11-16T10:46:00.466Z,20.51
2022-11-16T10:49:19.587Z,20.25
2022-11-16T10:52:22.297Z,20.06
2022-11-16T10:55:25.184Z,20.03
2022-11-16T10:58:27.901Z,19.86
2022-11-16T11:01:46.535Z,19.96
2022-11-16T11:05:23.064Z,19.99
2022-11-16T11:08:33.165Z,20.02
2022-11-16T11:11:54.377Z,20.00
2022-11-16T11:14:58.396Z,19.82
2022-11-16T11:18:23.940Z,19.86
2022-11-16T11:21:28.594Z,19.93
2022-11-16T11:24:44.566Z,19.90
2022-11-16T11:27:50.368Z,19.89
2022-11-16T11:31:04.551Z,19.85
2022-11-16T11:34:10.717Z,19.83
2022-11-16T11:37:25.579Z,19.81
2022-11-16T11:40:31.162Z,19.79
2022-11-16T11:43:35.434Z,19.79
2022-11-16T11:47:35.217Z,19.75
2022-11-16T11:50:12.529Z,19.73
2022-11-16T11:53:52.529Z,19.73
2022-11-16T11:56:55.314Z,19.71
2022-11-16T11:59:58.657Z,19.65
2022-11-16T12:03:16.857Z,19.57
2022-11-16T12:06:23.770Z,19.66
2022-11-16T12:09:58.473Z,19.57
2022-11-16T12:13:07.743Z,19.63
2022-11-16T12:16:25.533Z,19.61
2022-11-16T12:19:48.050Z,19.69
2022-11-16T12:23:01.127Z,19.83
2022-11-16T12:26:19.519Z,19.92
2022-11-16T12:29:35.769Z,19.97
2022-11-16T12:33:09.620Z,19.97
2022-11-16T12:36:23.375Z,19.99
2022-11-16T12:39:40.453Z,20.09
2022-11-16T12:42:50.223Z,20.08
2022-11-16T12:46:12.911Z,20.16
2022-11-16T12:49:36.790Z,20.20
2022-11-16T12:52:55.151Z,20.25
2022-11-16T12:56:19.982Z,20.25
2022-11-16T12:59:26.444Z,20.32
2022-11-16T13:02:50.886Z,20.39
2022-11-16T13:06:03.039Z,20.39
2022-11-16T13:09:26.581Z,20.40
2022-11-16T13:12:31.090Z,20.40
2022-11-16T13:15:40.746Z,20.40
2022-11-16T13:18:44.697Z,20.46
2022-11-16T13:22:07.513Z,20.41
2022-11-16T13:25:40.631Z,20.47
2022-11-16T13:28:52.529Z,20.43
2022-11-16T13:32:05.035Z,20.48
2022-11-16T13:35:14.775Z,20.53
2022-11-16T13:38:54.318Z,20.54
2022-11-16T13:42:11.667Z,20.56
2022-11-16T13:45:21.337Z,20.57
2022-11-16T13:48:45.977Z,20.57
2022-11-16T13:51:52.633Z,20.64
2022-11-16T13:54:56.422Z,20.73
2022-11-16T13:58:00.848Z,20.70
2022-11-16T14:01:08.436Z,20.77
2022-11-16T14:04:35.630Z,20.76
2022-11-16T14:07:47.508Z,20.81
2022-11-16T14:10:53.634Z,20.83
2022-11-16T14:13:55.892Z,20.81
2022-11-16T14:16:58.703Z,20.84
2022-11-16T14:20:01.188Z,20.85
2022-11-16T14:23:25.619Z,20.85
2022-11-16T14:26:46.863Z,20.83
2022-11-16T14:30:10.091Z,20.83
2022-11-16T14:33:24.153Z,20.87
2022-11-16T14:36:35.908Z,20.85
2022-11-16T14:39:41.394Z,20.83
2022-11-16T14:46:23.496Z,20.84
2022-11-16T14:49:27.802Z,20.85
2022-11-16T14:52:40.381Z,20.78
2022-11-16T14:55:45.687Z,20.71
2022-11-16T14:58:58.015Z,20.78
2022-11-16T15:02:14.950Z,20.81
2022-11-16T15:05:19.841Z,20.84
2022-11-16T15:08:30.707Z,20.73
2022-11-16T15:12:12.399Z,20.57
2022-11-16T15:15:18.313Z,20.50
2022-11-16T15:18:23.448Z,20.43
2022-11-16T15:21:26.698Z,20.36
2022-11-16T15:24:34.083Z,20.32
2022-11-16T15:27:40.788Z,20.25
2022-11-16T15:30:46.691Z,20.22
2022-11-16T15:33:51.037Z,20.16
2022-11-16T15:36:53.455Z,20.09
2022-11-16T15:39:58.669Z,20.06
2022-11-16T15:43:03.867Z,20.03
2022-11-16T15:46:08.633Z,20.02
2022-11-16T15:49:36.223Z,19.96
2022-11-16T15:52:45.865Z,19.92
2022-11-16T15:55:50.168Z,19.95
2022-11-16T15:58:58.148Z,19.90
2022-11-16T16:02:00.607Z,19.92
2022-11-16T16:05:03.438Z,19.89
2022-11-16T16:08:07.165Z,19.86
2022-11-16T16:11:16.904Z,19.87
2022-11-16T16:14:30.092Z,19.82
2022-11-16T16:17:32.910Z,19.85
2022-11-16T16:20:36.636Z,19.82
2022-11-16T16:23:49.872Z,19.78
2022-11-16T16:26:53.045Z,19.83
2022-11-16T16:30:05.324Z,20.00
2022-11-16T16:33:21.649Z,20.06
2022-11-16T16:36:24.639Z,20.10
2022-11-16T16:39:27.940Z,20.12
2022-11-16T16:42:31.545Z,20.03
2022-11-16T16:45:48.608Z,20.02
2022-11-16T16:48:51.250Z,20.03
2022-11-16T16:52:02.256Z,20.05
2022-11-16T16:55:08.265Z,20.08
2022-11-16T16:58:12.640Z,20.05
2022-11-16T17:01:17.886Z,20.10
2022-11-16T17:04:20.223Z,20.13
2022-11-16T17:07:23.799Z,20.13
2022-11-16T17:10:26.379Z,20.09
2022-11-16T17:13:29.111Z,20.09
2022-11-16T17:16:37.944Z,20.00
2022-11-16T17:19:40.792Z,19.96
2022-11-16T17:22:44.142Z,19.92
2022-11-16T17:25:47.056Z,19.90
2022-11-16T17:28:49.176Z,19.86
2022-11-16T17:31:52.024Z,19.69
2022-11-16T17:34:54.206Z,19.78
2022-11-16T17:37:59.551Z,19.76
2022-11-16T17:41:41.016Z,19.75
2022-11-16T17:44:43.734Z,19.69
2022-11-16T17:47:46.552Z,19.68
2022-11-16T17:50:49.426Z,19.66
2022-11-16T17:53:52.546Z,19.66
2022-11-16T17:56:55.469Z,19.62
2022-11-16T17:59:57.804Z,19.57
2022-11-16T18:03:01.576Z,19.54
2022-11-16T18:06:05.462Z,19.52
2022-11-16T18:09:08.369Z,19.51
2022-11-16T18:12:10.504Z,19.48
2022-11-16T18:15:28.027Z,19.45
2022-11-16T18:18:32.182Z,19.44
2022-11-16T18:21:41.712Z,19.42
2022-11-16T18:24:43.895Z,19.39
2022-11-16T18:27:51.257Z,19.39
2022-11-16T18:31:04.904Z,19.35
2022-11-16T18:34:07.535Z,19.35
2022-11-16T18:37:09.864Z,19.35
2022-11-16T18:40:13.208Z,19.36
2022-11-16T18:43:15.592Z,19.32
2022-11-16T18:46:24.087Z,19.34
2022-11-16T18:49:26.126Z,19.31
2022-11-16T18:52:28.926Z,19.30
2022-11-16T18:55:32.146Z,19.28
2022-11-16T18:58:51.852Z,19.27
2022-11-16T19:01:54.195Z,19.22
2022-11-16T19:04:56.797Z,19.25
2022-11-16T19:07:59.133Z,19.24
2022-11-16T19:11:13.243Z,19.22
2022-11-16T19:14:15.287Z,19.21
2022-11-16T19:17:19.612Z,19.20
2022-11-16T19:20:22.403Z,18.93
2022-11-16T19:23:25.087Z,19.00
2022-11-16T19:26:32.721Z,19.07
2022-11-16T19:29:49.397Z,19.08
2022-11-16T19:33:17.756Z,19.06
2022-11-16T19:36:20.873Z,19.04
2022-11-16T19:39:22.949Z,19.01
2022-11-16T19:45:51.375Z,19.03
2022-11-16T19:48:56.915Z,19.01
2022-11-16T19:52:02.157Z,19.06
2022-11-16T19:55:04.928Z,18.97
2022-11-16T19:58:07.204Z,18.97
2022-11-16T20:01:15.601Z,18.97
2022-11-16T20:04:17.788Z,18.99
2022-11-16T20:07:21.439Z,18.96
2022-11-16T20:10:23.728Z,18.93
2022-11-16T20:13:26.289Z,19.01
2022-11-16T20:16:37.032Z,19.14
2022-11-16T20:19:41.062Z,19.22
2022-11-16T20:22:44.337Z,19.35
2022-11-16T20:25:47.061Z,19.39
2022-11-16T20:28:55.562Z,19.44
2022-11-16T20:31:58.071Z,19.50
2022-11-16T20:35:00.167Z,19.52
2022-11-16T20:38:02.473Z,19.55
2022-11-16T20:41:13.381Z,19.57
2022-11-16T20:44:19.793Z,19.50
2022-11-16T20:47:21.870Z,19.41
2022-11-16T20:50:24.519Z,19.38
2022-11-16T20:53:26.880Z,19.32
2022-11-16T20:56:29.839Z,19.25
2022-11-16T20:59:32.240Z,19.25
2022-11-16T21:02:35.001Z,19.24
2022-11-16T21:05:46.488Z,19.18
2022-11-16T21:08:49.105Z,19.17
2022-11-16T21:12:10.205Z,19.25
2022-11-16T21:15:13.022Z,19.25
2022-11-16T21:18:16.538Z,19.17
2022-11-16T21:21:18.985Z,19.15
2022-11-16T21:24:24.848Z,18.96
2022-11-16T21:27:27.950Z,18.96
2022-11-16T21:30:30.041Z,19.00
2022-11-16T21:33:33.238Z,18.94
2022-11-16T21:36:36.676Z,19.17
2022-11-16T21:39:39.125Z,19.21
2022-11-16T21:42:41.143Z,19.35
2022-11-16T21:45:45.336Z,19.39
2022-11-16T21:48:48.274Z,19.35
2022-11-16T21:51:50.658Z,19.42
2022-11-16T21:55:00.114Z,19.27
2022-11-16T21:58:06.349Z,19.35
2022-11-16T22:01:10.999Z,19.41
2022-11-16T22:04:31.840Z,19.52
2022-11-16T22:07:33.971Z,19.41
2022-11-16T22:10:36.310Z,19.51
2022-11-16T22:13:39.243Z,19.62
2022-11-16T22:16:42.417Z,19.66
2022-11-16T22:19:44.403Z,19.72
2022-11-16T22:22:46.940Z,19.72
2022-11-16T22:25:49.068Z,19.73
2022-11-16T22:28:53.578Z,19.75
2022-11-16T22:31:55.737Z,19.82
2022-11-16T22:34:58.529Z,19.85
2022-11-16T22:38:03.268Z,19.76
2022-11-16T22:41:06.509Z,19.72
2022-11-16T22:44:08.690Z,19.59
2022-11-16T22:47:11.198Z,19.62
2022-11-16T22:50:15.841Z,19.75
2022-11-16T22:53:18.270Z,19.86
2022-11-16T22:56:24.246Z,19.99
2022-11-16T22:59:26.391Z,20.02
2022-11-16T23:02:28.527Z,20.00
2022-11-16T23:05:30.976Z,20.06
2022-11-16T23:08:34.268Z,20.06
2022-11-16T23:11:55.384Z,20.00
2022-11-16T23:15:18.748Z,19.86
2022-11-16T23:18:21.361Z,19.89
2022-11-16T23:21:42.145Z,19.99
2022-11-16T23:25:04.570Z,20.09
2022-11-16T23:28:12.828Z,20.03
2022-11-16T23:31:15.169Z,19.96
2022-11-16T23:34:17.011Z,19.78
2022-11-16T23:37:19.668Z,20.03
2022-11-16T23:40:24.768Z,20.02
2022-11-16T23:43:46.004Z,20.03
2022-11-16T23:46:47.957Z,20.02
2022-11-16T23:49:51.267Z,20.13
2022-11-16T23:52:53.339Z,20.06
2022-11-16T23:56:05.782Z,20.03
2022-11-16T23:59:08.288Z,19.85
